Air Resources Laboratory banner image
Air Resources Laboratory web site National Oceanic and Atmospheric Administration (NOAA)

va metar


KAKQ 210254Z AUTO 00000KT 1/2SM FG FEW036 14/14 A3043 RMK AO2 SLP305 T01390139
 51009 TSNO=
KAKQ 210312Z AUTO 00000KT 1/2SM FG VV002 14/14 A3043 RMK AO2 T01390139 TSNO=
KAKQ 210321Z AUTO 00000KT 1/4SM FG VV003 14/14 A3043 RMK AO2 T01390139 TSNO=
KAVC 210255Z AUTO 00000KT 1SM BKN043 BKN050 OVC060 15/15 A3048 RMK AO2
 T01500150=
KBCB 210255Z AUTO 00000KT 10SM CLR 12/11 A3045 RMK AO2 T01240110=
KCHO 210253Z 19008KT 10SM CLR 18/14 A3036 RMK AO2 SLP278 T01780139 53006=
KCJR 210255Z AUTO 20008KT 10SM CLR 19/14 A3035 RMK AO2 T01900137=
KCPK 210255Z AUTO 18006KT 7SM CLR 18/17 A3045 RMK AO2 T01790170=
KDAA 210256Z AUTO 18004KT 10SM CLR 19/13 A3034 RMK AO2 SLP277 T01860132 50007 $=
KDAN 210253Z AUTO 00000KT 10SM CLR 13/13 A3042 RMK AO2 SLP294 T01280128 51005=
KDCA 210252Z 19009KT 10SM BKN250 17/13 A3034 RMK AO2 SLP271 T01670128 51007=
KEZF 210255Z AUTO 21006KT 10SM CLR 19/16 A3035 RMK AO2 T01850155=
KFAF 210256Z AUTO 18003KT 10SM CLR 16/15 A3040 RMK AO2 SLP298 P0000 60000
 T01550152 52009 $=
KFKN 210255Z AUTO 00000KT 1/2SM FG BKN002 BKN006 OVC015 13/12 A3044 RMK AO2
 T01250122=
KHEF 210256Z 20008KT 10SM CLR 18/14 A3034 RMK AO2 SLP284 6//// T01830139 50007
 PNO $=
KHLX 210255Z AUTO 20010KT 10SM CLR 14/13 A3043 RMK AO2 T01360126=
KHSP 210255Z AUTO 20009G14KT 10SM CLR 12/12 A3043 RMK AO2 T01170115=
KIAD 210252Z 20011KT 10SM SCT250 18/14 A3032 RMK AO2 SLP266 T01830139 51005=
KJYO 210255Z AUTO 20007G14KT 10SM CLR 19/15 A3032 RMK AO2=
KLFI 210256Z 20007KT 3SM BR CLR 17/17 A3043 RMK SLP311 T01710171=
KLKU 210255Z AUTO 20005KT 10SM CLR 17/14 A3042 RMK AO2 T01700141=
KLNP 210255Z AUTO 17010KT 10SM CLR 18/11 A3037 RMK AO2=
KLYH 210254Z 00000KT 5SM BR CLR 12/12 A3041 RMK AO2 SLP296 T01220117 51006=
KMFV 210255Z AUTO 19007KT 7SM CLR 15/14 A3041 RMK AO2 T01450144=
KMKJ 210255Z AUTO 00000KT 10SM CLR 16/10 A3044 RMK AO2 T01590098=
KMTV 210255Z AUTO 00000KT 4SM BR SCT002 11/10 A3045 RMK AO2 T01050102=
KNGU 210259Z 19007KT 9SM FEW025 SCT050 19/17 A3045 RMK AO2 SLP309 T01940167
 51009=
KNTU 210256Z 20008KT 10SM CLR 19/17 A3044 RMK AO2 SLP309 T01940167 51012=
KNYG 210256Z AUTO 22008KT 10SM CLR 14/12 A3036 RMK AO2 SLP280 T01390122 50005=
KOFP 210254Z AUTO 18006KT 10SM CLR 18/16 A3040 RMK AO2 SLP295 T01780161 51007=
KOKV 210255Z AUTO 21006KT 10SM CLR 17/11 A3031 RMK AO2=
KOMH 210255Z AUTO 20005KT 10SM CLR 17/13 A3036 RMK AO2=
KORF 210251Z 19010KT 10SM CLR 19/18 A3043 RMK AO2 SLP304 T01940178 51009 $=
KPHF 210254Z 17004KT 1/4SM FG OVC026 13/13 A3043 RMK AO2 TWR VIS 10 SLP302
 T01280128 53005=
KPSK 210255Z AUTO 24003KT 10SM CLR 14/12 A3043 RMK AO2 T01370117=
KRIC 210254Z 19008KT 9SM SCT035 SCT300 17/16 A3040 RMK AO2 SLP300 T01720161
 52007=
KROA 210254Z 00000KT 10SM CLR 16/13 A3042 RMK AO2 SLP300 T01560128 51008=
KSFQ 210255Z AUTO 18004KT 10SM CLR 17/17 A3045 RMK AO2 T01650165=
KSHD 210255Z AUTO 18005KT 10SM CLR 15/11 A3039 RMK AO2 T01450111=
KVJI 210255Z AUTO 00000KT 10SM BKN055 17/11 A3038 RMK AO2 T01730114=
KWAL 210254Z AUTO 19008KT 1/2SM FG VV002 13/13 A3042 RMK AO2 SLP298 T01280128
 50002 $=